createdAt,value
2023-05-16T00:00:41.673Z,64.42
2023-05-16T00:03:08.668Z,64.21
2023-05-16T00:05:36.348Z,64.15
2023-05-16T00:08:03.199Z,64.08
2023-05-16T00:10:30.025Z,64.30
2023-05-16T00:12:57.704Z,64.50
2023-05-16T00:15:25.222Z,65.11
2023-05-16T00:17:52.210Z,64.90
2023-05-16T00:20:23.564Z,65.22
2023-05-16T00:22:51.219Z,65.11
2023-05-16T00:25:18.584Z,65.38
2023-05-16T00:27:45.763Z,65.59
2023-05-16T00:30:12.982Z,66.08
2023-05-16T00:32:39.951Z,65.97
2023-05-16T00:35:08.043Z,66.67
2023-05-16T00:37:34.769Z,66.47
2023-05-16T00:40:01.466Z,66.61
2023-05-16T00:42:28.232Z,66.70
2023-05-16T00:44:54.945Z,66.73
2023-05-16T00:47:21.674Z,67.04
2023-05-16T00:49:48.751Z,67.07
2023-05-16T00:52:16.400Z,66.93
2023-05-16T00:54:43.538Z,67.08
2023-05-16T00:57:10.458Z,66.62
2023-05-16T00:59:37.314Z,67.00
2023-05-16T01:02:04.427Z,66.69
2023-05-16T01:04:32.649Z,66.70
2023-05-16T01:07:02.480Z,66.19
2023-05-16T01:09:29.233Z,66.55
2023-05-16T01:12:08.363Z,66.49
2023-05-16T01:14:37.744Z,66.51
2023-05-16T01:17:23.364Z,66.31
2023-05-16T01:20:11.453Z,66.40
2023-05-16T01:22:46.267Z,66.54
2023-05-16T01:25:26.290Z,66.75
2023-05-16T01:27:53.839Z,66.76
2023-05-16T01:30:22.493Z,66.54
2023-05-16T01:32:49.250Z,66.89
2023-05-16T01:35:17.519Z,66.88
2023-05-16T01:38:11.714Z,66.87
2023-05-16T01:41:00.143Z,66.80
2023-05-16T01:43:35.647Z,67.03
2023-05-16T01:46:09.595Z,66.75
2023-05-16T01:49:09.076Z,66.90
2023-05-16T01:51:40.853Z,66.64
2023-05-16T01:54:12.225Z,66.26
2023-05-16T01:56:42.956Z,65.98
2023-05-16T01:59:11.908Z,65.64
2023-05-16T02:01:38.736Z,65.63
2023-05-16T02:04:05.644Z,65.42
2023-05-16T02:06:32.753Z,65.09
2023-05-16T02:08:59.480Z,64.72
2023-05-16T02:11:26.162Z,63.65
2023-05-16T02:13:53.402Z,63.03
2023-05-16T02:16:20.097Z,62.33
2023-05-16T02:18:46.863Z,61.75
2023-05-16T02:21:13.570Z,61.30
2023-05-16T02:23:40.228Z,60.76
2023-05-16T02:26:06.994Z,60.28
2023-05-16T02:28:33.696Z,60.18
2023-05-16T02:31:00.838Z,59.36
2023-05-16T02:33:29.208Z,58.85
2023-05-16T02:35:56.116Z,58.70
2023-05-16T02:38:26.058Z,58.33
2023-05-16T02:40:52.818Z,57.34
2023-05-16T02:43:21.552Z,56.94
2023-05-16T02:45:48.314Z,56.61
2023-05-16T02:48:17.010Z,56.09
2023-05-16T02:50:43.693Z,55.64
2023-05-16T02:53:10.891Z,55.48
2023-05-16T02:55:37.823Z,55.54
2023-05-16T02:58:04.857Z,55.26
2023-05-16T03:00:31.659Z,54.94
2023-05-16T03:02:58.459Z,54.92
2023-05-16T03:05:27.167Z,55.07
2023-05-16T03:07:54.122Z,54.93
2023-05-16T03:10:20.972Z,55.07
2023-05-16T03:12:47.696Z,55.27
2023-05-16T03:15:14.459Z,55.46
2023-05-16T03:17:41.992Z,55.69
2023-05-16T03:20:10.074Z,55.60
2023-05-16T03:22:37.020Z,55.60
2023-05-16T03:25:04.928Z,55.45
2023-05-16T03:27:31.579Z,55.67
2023-05-16T03:29:58.204Z,55.75
2023-05-16T03:32:25.004Z,55.81
2023-05-16T03:34:51.995Z,55.93
2023-05-16T03:37:18.859Z,55.93
2023-05-16T03:39:45.561Z,55.88
2023-05-16T03:42:12.442Z,55.68
2023-05-16T03:44:39.321Z,55.90
2023-05-16T03:47:06.632Z,55.91
2023-05-16T03:49:33.341Z,55.97
2023-05-16T03:51:59.979Z,55.97
2023-05-16T03:54:27.212Z,56.21
2023-05-16T03:56:54.002Z,56.09
2023-05-16T03:59:20.712Z,56.27
2023-05-16T04:01:48.227Z,56.32
2023-05-16T04:04:14.876Z,56.35
2023-05-16T04:06:41.761Z,56.53
2023-05-16T04:09:08.434Z,56.64
2023-05-16T04:11:35.393Z,56.60
2023-05-16T04:14:02.207Z,56.43
2023-05-16T04:16:29.222Z,56.88
2023-05-16T04:18:57.132Z,57.24
2023-05-16T04:21:23.909Z,57.89
2023-05-16T04:23:50.657Z,58.50
2023-05-16T04:26:17.848Z,59.08
2023-05-16T04:28:44.925Z,59.64
2023-05-16T04:31:11.800Z,60.07
2023-05-16T04:33:38.576Z,60.57
2023-05-16T04:36:06.195Z,60.42
2023-05-16T04:38:33.061Z,61.18
2023-05-16T04:40:59.959Z,61.44
2023-05-16T04:43:27.025Z,62.08
2023-05-16T04:45:54.472Z,62.01
2023-05-16T04:48:21.547Z,62.56
2023-05-16T04:50:48.264Z,62.71
2023-05-16T04:53:15.286Z,63.09
2023-05-16T04:55:42.992Z,63.51
2023-05-16T04:58:09.753Z,63.60
2023-05-16T05:00:36.862Z,63.87
2023-05-16T05:03:03.709Z,63.88
2023-05-16T05:05:30.685Z,64.23
2023-05-16T05:07:58.612Z,64.27
2023-05-16T05:10:27.290Z,64.27
2023-05-16T05:12:54.477Z,64.60
2023-05-16T05:15:21.409Z,64.89
2023-05-16T05:17:48.124Z,65.25
2023-05-16T05:20:14.987Z,65.31
2023-05-16T05:22:41.648Z,64.98
2023-05-16T05:25:08.882Z,64.40
2023-05-16T05:27:36.019Z,64.81
2023-05-16T05:30:03.943Z,65.40
2023-05-16T05:32:31.288Z,65.70
2023-05-16T05:34:58.191Z,65.74
2023-05-16T05:37:27.048Z,66.07
2023-05-16T05:39:53.750Z,66.77
2023-05-16T05:42:20.448Z,66.39
2023-05-16T05:44:47.151Z,66.46
2023-05-16T05:47:13.964Z,66.74
2023-05-16T05:49:40.758Z,66.54
2023-05-16T05:52:07.833Z,66.27
2023-05-16T05:54:35.858Z,66.17
2023-05-16T05:57:02.639Z,66.72
2023-05-16T05:59:29.475Z,66.62
2023-05-16T06:01:56.555Z,66.57
2023-05-16T06:04:23.312Z,66.81
2023-05-16T06:06:51.069Z,67.07
2023-05-16T06:09:17.776Z,67.14
2023-05-16T06:11:45.968Z,66.51
2023-05-16T06:14:14.331Z,66.07
2023-05-16T06:16:41.069Z,65.66
2023-05-16T06:19:08.620Z,65.90
2023-05-16T06:21:35.421Z,66.04
2023-05-16T06:24:02.069Z,66.23
2023-05-16T06:26:28.773Z,66.08
2023-05-16T06:28:55.453Z,66.27
2023-05-16T06:31:22.168Z,66.51
2023-05-16T06:33:48.929Z,66.43
2023-05-16T06:36:15.637Z,66.66
2023-05-16T06:38:42.335Z,66.63
2023-05-16T06:41:09.047Z,66.65
2023-05-16T06:43:35.854Z,67.35
2023-05-16T06:46:03.970Z,67.21
2023-05-16T06:48:30.852Z,67.40
2023-05-16T06:50:57.819Z,67.32
2023-05-16T06:53:24.790Z,67.26
2023-05-16T06:55:51.564Z,67.20
2023-05-16T06:58:18.685Z,67.17
2023-05-16T07:00:45.428Z,67.16
2023-05-16T07:03:12.284Z,66.83
2023-05-16T07:05:39.704Z,67.06
2023-05-16T07:08:07.956Z,67.01
2023-05-16T07:10:37.709Z,66.87
2023-05-16T07:13:05.632Z,67.26
2023-05-16T07:15:32.566Z,66.89
2023-05-16T07:17:59.437Z,66.67
2023-05-16T07:20:26.506Z,66.50
2023-05-16T07:22:53.439Z,66.58
2023-05-16T07:25:20.168Z,66.47
2023-05-16T07:27:46.827Z,66.36
2023-05-16T07:30:14.669Z,66.60
2023-05-16T07:32:41.913Z,66.28
2023-05-16T07:35:09.817Z,66.57
2023-05-16T07:37:36.880Z,66.20
2023-05-16T07:40:04.418Z,66.00
2023-05-16T07:42:31.952Z,66.04
2023-05-16T07:44:58.795Z,65.84
2023-05-16T07:47:26.097Z,65.77
2023-05-16T07:49:53.091Z,66.03
2023-05-16T07:52:20.233Z,66.38
2023-05-16T07:54:47.820Z,66.45
2023-05-16T07:57:15.987Z,66.58
2023-05-16T07:59:44.223Z,66.89
2023-05-16T08:02:11.745Z,66.26
2023-05-16T08:04:38.892Z,64.78
2023-05-16T08:07:06.233Z,63.86
2023-05-16T08:09:33.445Z,63.80
2023-05-16T08:12:03.930Z,64.39
2023-05-16T08:14:32.590Z,64.55
2023-05-16T08:17:00.719Z,65.33
2023-05-16T08:19:28.235Z,66.08
2023-05-16T08:21:55.152Z,65.72
2023-05-16T08:24:21.992Z,66.38
2023-05-16T08:26:48.801Z,66.34
2023-05-16T08:29:15.578Z,66.78
2023-05-16T08:31:42.343Z,66.80
2023-05-16T08:34:10.454Z,66.64
2023-05-16T08:36:38.574Z,66.66
2023-05-16T08:39:05.515Z,66.27
2023-05-16T08:41:32.367Z,66.22
2023-05-16T08:43:59.232Z,66.35
2023-05-16T08:46:28.147Z,65.35
2023-05-16T08:48:59.770Z,64.87
2023-05-16T08:51:28.442Z,64.60
2023-05-16T08:54:11.918Z,64.90
2023-05-16T08:56:39.036Z,65.07
2023-05-16T08:59:06.313Z,64.97
2023-05-16T09:01:33.532Z,65.16
2023-05-16T09:04:01.790Z,65.23
2023-05-16T09:06:28.816Z,65.25
2023-05-16T09:08:55.729Z,65.17
2023-05-16T09:11:22.777Z,64.83
2023-05-16T09:13:50.630Z,64.96
2023-05-16T09:16:19.338Z,64.79
2023-05-16T09:18:54.280Z,64.95
2023-05-16T09:21:21.553Z,64.96
2023-05-16T09:23:51.451Z,65.00
2023-05-16T09:26:19.123Z,65.32
2023-05-16T09:28:45.833Z,65.66
2023-05-16T09:31:27.416Z,65.75
2023-05-16T09:33:57.053Z,66.06
2023-05-16T09:36:24.186Z,66.21
2023-05-16T09:38:51.714Z,66.69
2023-05-16T09:41:19.057Z,66.73
2023-05-16T09:43:46.612Z,66.63
2023-05-16T09:46:19.840Z,67.00
2023-05-16T09:48:47.858Z,67.28
2023-05-16T09:51:15.201Z,67.22
2023-05-16T09:53:42.106Z,67.46
2023-05-16T09:56:12.846Z,67.36
2023-05-16T09:58:41.477Z,67.57
2023-05-16T10:01:09.932Z,68.03
2023-05-16T10:03:42.841Z,67.84
2023-05-16T10:06:11.084Z,66.81
2023-05-16T10:08:42.052Z,66.02
2023-05-16T10:11:08.941Z,65.61
2023-05-16T10:13:37.852Z,65.42
2023-05-16T10:16:14.439Z,65.50
2023-05-16T10:18:43.603Z,65.60
2023-05-16T10:21:15.512Z,64.89
2023-05-16T10:23:43.679Z,64.56
2023-05-16T10:26:14.297Z,64.28
2023-05-16T10:28:42.141Z,63.77
2023-05-16T10:31:11.152Z,63.52
2023-05-16T10:33:39.237Z,63.55
2023-05-16T10:36:08.028Z,63.34
2023-05-16T10:38:38.803Z,63.24
2023-05-16T10:41:07.230Z,63.46
2023-05-16T10:43:34.031Z,63.79
2023-05-16T10:46:10.111Z,63.31
2023-05-16T10:48:39.570Z,63.12
2023-05-16T10:51:33.752Z,62.93
2023-05-16T10:54:09.589Z,60.80
2023-05-16T10:56:37.010Z,59.95
2023-05-16T10:59:05.171Z,59.70
2023-05-16T11:01:35.687Z,59.57
2023-05-16T11:04:06.826Z,59.48
2023-05-16T11:06:40.929Z,59.05
2023-05-16T11:09:18.403Z,59.29
2023-05-16T11:11:52.615Z,59.26
2023-05-16T11:14:26.999Z,59.67
2023-05-16T11:17:00.174Z,58.57
2023-05-16T11:19:40.801Z,58.69
2023-05-16T11:22:24.230Z,58.82
2023-05-16T11:25:01.956Z,58.95
2023-05-16T11:27:33.932Z,58.86
2023-05-16T11:30:13.322Z,58.97
2023-05-16T11:32:45.767Z,58.83
2023-05-16T11:35:15.561Z,58.71
2023-05-16T11:37:45.416Z,58.58
2023-05-16T11:40:14.733Z,58.53
2023-05-16T11:42:45.292Z,58.84
2023-05-16T11:45:17.468Z,58.51
2023-05-16T11:47:45.810Z,58.17
2023-05-16T11:50:14.834Z,58.36
2023-05-16T11:52:53.846Z,57.68
2023-05-16T11:55:40.484Z,57.35
2023-05-16T11:58:10.330Z,56.64
2023-05-16T12:00:37.178Z,56.27
2023-05-16T12:03:07.169Z,55.90
2023-05-16T12:05:35.320Z,55.90
2023-05-16T12:08:05.054Z,55.60
2023-05-16T12:10:34.610Z,55.62
2023-05-16T12:13:03.545Z,55.22
2023-05-16T12:15:30.702Z,54.36
2023-05-16T12:17:58.036Z,53.05
2023-05-16T12:20:26.258Z,52.85
2023-05-16T12:22:53.346Z,53.67
2023-05-16T12:25:35.001Z,53.56
2023-05-16T12:28:04.388Z,51.67
2023-05-16T12:30:33.548Z,50.12
2023-05-16T12:33:04.141Z,50.10
2023-05-16T12:35:34.506Z,49.58
2023-05-16T12:38:05.835Z,50.50
2023-05-16T12:40:32.695Z,49.38
2023-05-16T12:43:00.096Z,48.98
2023-05-16T12:45:29.825Z,48.61
2023-05-16T12:47:56.616Z,48.68
2023-05-16T12:50:26.942Z,48.69
2023-05-16T12:52:55.244Z,49.23
2023-05-16T12:55:23.102Z,48.42
2023-05-16T12:57:51.197Z,48.05
2023-05-16T13:00:20.139Z,47.65
2023-05-16T13:02:48.856Z,47.57
2023-05-16T13:05:16.057Z,47.61
2023-05-16T13:07:42.863Z,47.67
2023-05-16T13:10:11.519Z,47.69
2023-05-16T13:12:39.411Z,47.16
2023-05-16T13:15:11.793Z,47.24
2023-05-16T13:17:40.832Z,47.14
2023-05-16T13:20:17.776Z,47.17
2023-05-16T13:22:45.167Z,47.25
2023-05-16T13:25:12.269Z,47.47
2023-05-16T13:27:39.325Z,47.51
2023-05-16T13:30:07.797Z,47.38
2023-05-16T13:32:34.649Z,46.96
2023-05-16T13:35:01.414Z,46.90
2023-05-16T13:37:28.266Z,46.77
2023-05-16T13:39:56.011Z,47.09
2023-05-16T13:42:22.915Z,47.39
2023-05-16T13:44:50.111Z,47.35
2023-05-16T13:47:17.010Z,47.64
2023-05-16T13:49:43.902Z,47.08
2023-05-16T13:52:10.770Z,46.07
2023-05-16T13:54:37.711Z,46.81
2023-05-16T13:57:04.932Z,47.05
2023-05-16T13:59:56.808Z,47.65
2023-05-16T14:02:18.467Z,46.54
2023-05-16T14:04:46.718Z,46.75
2023-05-16T14:07:14.627Z,46.40
2023-05-16T14:09:41.327Z,46.22
2023-05-16T14:12:08.831Z,46.32
2023-05-16T14:14:36.050Z,46.47
2023-05-16T14:17:03.997Z,46.57
2023-05-16T14:19:31.516Z,46.89
2023-05-16T14:21:58.661Z,46.57
2023-05-16T14:24:25.472Z,45.93
2023-05-16T14:26:58.100Z,46.17
2023-05-16T14:29:25.798Z,45.68
2023-05-16T14:31:53.213Z,45.92
2023-05-16T14:34:20.443Z,46.19
2023-05-16T14:36:47.171Z,45.81
2023-05-16T14:39:14.336Z,44.98
2023-05-16T14:41:41.082Z,44.75
2023-05-16T14:44:08.313Z,45.09
2023-05-16T14:46:37.541Z,45.05
2023-05-16T14:49:04.384Z,45.27
2023-05-16T14:51:32.553Z,45.74
2023-05-16T14:53:59.303Z,46.02
2023-05-16T14:56:28.107Z,45.83
2023-05-16T14:58:55.194Z,45.85
2023-05-16T15:01:23.157Z,46.53
2023-05-16T15:03:55.895Z,46.38
2023-05-16T15:06:24.841Z,46.27
2023-05-16T15:08:52.048Z,45.96
2023-05-16T15:11:18.763Z,46.28
2023-05-16T15:13:46.353Z,46.23
2023-05-16T15:16:13.229Z,46.48
2023-05-16T15:18:40.675Z,46.56
2023-05-16T15:21:07.992Z,46.86
2023-05-16T15:23:34.890Z,47.07
2023-05-16T15:26:01.844Z,47.36
2023-05-16T15:28:28.611Z,47.11
2023-05-16T15:30:55.459Z,47.23
2023-05-16T15:33:22.247Z,48.15
2023-05-16T15:35:48.976Z,47.54
2023-05-16T15:38:15.815Z,47.09
2023-05-16T15:40:42.850Z,46.87
2023-05-16T15:43:09.634Z,47.30
2023-05-16T15:45:39.433Z,47.81
2023-05-16T15:48:07.455Z,47.90
2023-05-16T15:50:34.369Z,48.06
2023-05-16T15:53:01.260Z,48.24
2023-05-16T15:55:28.280Z,48.35
2023-05-16T15:57:57.448Z,48.55
2023-05-16T16:00:25.124Z,48.49
2023-05-16T16:02:52.531Z,48.71
2023-05-16T16:05:19.402Z,48.82
2023-05-16T16:07:46.181Z,49.21
2023-05-16T16:10:12.942Z,49.15
2023-05-16T16:12:39.891Z,49.08
2023-05-16T16:15:07.788Z,49.12
2023-05-16T16:17:34.595Z,49.39
2023-05-16T16:20:01.448Z,49.56
2023-05-16T16:22:28.185Z,49.49
2023-05-16T16:24:54.864Z,49.61
2023-05-16T16:27:21.643Z,49.82
2023-05-16T16:29:48.451Z,49.77
2023-05-16T16:32:15.270Z,50.21
2023-05-16T16:34:42.043Z,49.94
2023-05-16T16:37:10.331Z,50.29
2023-05-16T16:39:37.480Z,50.69
2023-05-16T16:42:06.202Z,51.06
2023-05-16T16:44:33.013Z,51.65
2023-05-16T16:47:02.711Z,52.24
2023-05-16T16:49:32.842Z,52.74
2023-05-16T16:51:59.700Z,53.34
2023-05-16T16:54:28.182Z,53.80
2023-05-16T16:56:56.437Z,53.69
2023-05-16T16:59:25.494Z,53.76
2023-05-16T17:01:53.227Z,53.48
2023-05-16T17:04:20.281Z,53.63
2023-05-16T17:06:52.821Z,52.78
2023-05-16T17:09:20.632Z,53.27
2023-05-16T17:11:47.571Z,54.54
2023-05-16T17:14:15.256Z,55.46
2023-05-16T17:16:42.131Z,55.68
2023-05-16T17:19:09.939Z,55.65
2023-05-16T17:21:40.200Z,55.32
2023-05-16T17:24:07.711Z,55.00
2023-05-16T17:26:34.732Z,54.98
2023-05-16T17:29:02.439Z,55.26
2023-05-16T17:31:29.167Z,55.44
2023-05-16T17:33:55.966Z,55.04
2023-05-16T17:36:22.805Z,55.07
2023-05-16T17:38:50.080Z,54.94
2023-05-16T17:41:17.202Z,55.04
2023-05-16T17:43:45.452Z,55.01
2023-05-16T17:46:12.851Z,55.46
2023-05-16T17:48:39.863Z,55.79
2023-05-16T17:51:06.873Z,56.01
2023-05-16T17:53:33.708Z,55.85
2023-05-16T17:56:00.614Z,55.85
2023-05-16T17:58:28.229Z,56.23
2023-05-16T18:00:55.364Z,56.16
2023-05-16T18:03:22.123Z,55.99
2023-05-16T18:05:49.703Z,55.84
2023-05-16T18:08:16.557Z,55.93
2023-05-16T18:10:51.536Z,55.78
2023-05-16T18:13:19.902Z,55.74
2023-05-16T18:15:46.737Z,55.76
2023-05-16T18:18:13.730Z,56.09
2023-05-16T18:20:41.081Z,56.31
2023-05-16T18:23:08.565Z,56.69
2023-05-16T18:25:35.468Z,56.84
2023-05-16T18:28:02.248Z,57.07
2023-05-16T18:30:29.094Z,57.46
2023-05-16T18:32:55.944Z,57.93
2023-05-16T18:35:23.957Z,58.19
2023-05-16T18:37:50.801Z,58.15
2023-05-16T18:40:18.140Z,58.34
2023-05-16T18:42:45.206Z,58.32
2023-05-16T18:45:11.985Z,58.33
2023-05-16T18:47:39.056Z,58.74
2023-05-16T18:50:06.699Z,58.93
2023-05-16T18:52:35.398Z,59.21
2023-05-16T18:55:02.369Z,59.62
2023-05-16T18:57:29.266Z,59.66
2023-05-16T18:59:56.683Z,60.02
2023-05-16T19:02:34.077Z,59.88
2023-05-16T19:05:08.810Z,60.31
2023-05-16T19:07:35.866Z,60.22
2023-05-16T19:10:03.967Z,60.43
2023-05-16T19:12:30.978Z,60.64
2023-05-16T19:14:57.818Z,60.72
2023-05-16T19:17:24.670Z,60.88
2023-05-16T19:19:52.077Z,60.82
2023-05-16T19:22:18.919Z,61.18
2023-05-16T19:24:45.713Z,61.30
2023-05-16T19:27:12.567Z,61.38
2023-05-16T19:29:39.280Z,61.45
2023-05-16T19:32:06.508Z,61.59
2023-05-16T19:34:36.129Z,61.48
2023-05-16T19:37:04.262Z,61.77
2023-05-16T19:39:32.246Z,61.95
2023-05-16T19:42:07.145Z,62.16
2023-05-16T19:44:35.216Z,62.15
2023-05-16T19:47:02.053Z,62.44
2023-05-16T19:49:31.896Z,63.14
2023-05-16T19:51:58.824Z,63.18
2023-05-16T19:54:25.918Z,63.37
2023-05-16T19:56:52.704Z,63.46
2023-05-16T19:59:19.540Z,63.45
2023-05-16T20:01:46.344Z,64.45
2023-05-16T20:04:13.326Z,64.66
2023-05-16T20:06:40.283Z,64.90
2023-05-16T20:09:07.519Z,65.04
2023-05-16T20:11:34.372Z,65.29
2023-05-16T20:14:01.139Z,65.47
2023-05-16T20:16:28.113Z,65.78
2023-05-16T20:18:54.869Z,65.94
2023-05-16T20:21:21.908Z,66.32
2023-05-16T20:23:48.714Z,66.27
2023-05-16T20:26:15.827Z,66.04
2023-05-16T20:28:42.664Z,65.93
2023-05-16T20:31:09.578Z,66.18
2023-05-16T20:33:36.399Z,66.22
2023-05-16T20:36:03.554Z,66.33
2023-05-16T20:38:30.595Z,66.43
2023-05-16T20:40:57.790Z,66.60
2023-05-16T20:43:26.601Z,66.69
2023-05-16T20:45:53.857Z,66.51
2023-05-16T20:48:21.051Z,66.78
2023-05-16T20:50:48.075Z,66.93
2023-05-16T20:53:14.873Z,67.00
2023-05-16T20:55:41.605Z,67.13
2023-05-16T20:58:08.350Z,67.11
2023-05-16T21:00:35.148Z,67.51
2023-05-16T21:03:01.933Z,67.39
2023-05-16T21:05:28.776Z,67.60
2023-05-16T21:07:55.612Z,67.78
2023-05-16T21:10:22.328Z,67.82
2023-05-16T21:12:50.342Z,68.05
2023-05-16T21:15:17.136Z,67.92
2023-05-16T21:17:43.950Z,68.32
2023-05-16T21:20:10.977Z,68.23
2023-05-16T21:22:37.748Z,68.50
2023-05-16T21:25:05.283Z,68.57
2023-05-16T21:27:33.293Z,69.05
2023-05-16T21:30:00.139Z,68.89
2023-05-16T21:32:32.230Z,69.05
2023-05-16T21:35:04.413Z,69.12
2023-05-16T21:37:31.179Z,69.35
2023-05-16T21:39:57.905Z,69.38
2023-05-16T21:42:24.683Z,69.27
2023-05-16T21:44:51.620Z,69.64
2023-05-16T21:47:18.450Z,70.07
2023-05-16T21:49:45.193Z,70.27
2023-05-16T21:52:11.908Z,70.40
2023-05-16T21:54:38.587Z,70.44
2023-05-16T21:57:06.587Z,70.25
2023-05-16T21:59:33.312Z,70.64
2023-05-16T22:02:00.077Z,70.41
2023-05-16T22:04:27.268Z,70.41
2023-05-16T22:06:54.324Z,70.64
2023-05-16T22:09:21.176Z,70.68
2023-05-16T22:11:47.909Z,70.80
2023-05-16T22:14:14.703Z,70.93
2023-05-16T22:16:41.445Z,71.24
2023-05-16T22:19:09.169Z,71.02
2023-05-16T22:21:36.166Z,71.39
2023-05-16T22:24:03.260Z,71.09
2023-05-16T22:26:30.169Z,71.25
2023-05-16T22:28:56.941Z,71.27
2023-05-16T22:31:23.662Z,71.73
2023-05-16T22:33:50.470Z,71.86
2023-05-16T22:36:17.252Z,71.91
2023-05-16T22:38:44.101Z,71.86
2023-05-16T22:41:10.831Z,72.07
2023-05-16T22:43:38.462Z,71.80
2023-05-16T22:46:05.605Z,72.00
2023-05-16T22:48:32.436Z,71.96
2023-05-16T22:50:59.827Z,72.03
2023-05-16T22:53:26.536Z,72.20
2023-05-16T22:55:53.253Z,71.70
2023-05-16T22:58:20.069Z,72.09
2023-05-16T23:00:46.872Z,71.90
2023-05-16T23:03:13.705Z,72.02
2023-05-16T23:05:40.556Z,72.16
2023-05-16T23:08:07.281Z,72.05
2023-05-16T23:10:34.092Z,71.58
2023-05-16T23:13:01.288Z,71.29
2023-05-16T23:15:28.340Z,71.16
2023-05-16T23:17:55.399Z,71.43
2023-05-16T23:20:22.561Z,71.42
2023-05-16T23:22:49.253Z,71.29
2023-05-16T23:25:16.078Z,71.34
2023-05-16T23:27:43.013Z,71.67
2023-05-16T23:30:11.472Z,71.59
2023-05-16T23:32:38.229Z,71.48
2023-05-16T23:35:05.667Z,71.56
2023-05-16T23:37:32.458Z,71.54
2023-05-16T23:39:59.362Z,71.32
2023-05-16T23:42:26.141Z,70.80
2023-05-16T23:44:52.810Z,70.82
2023-05-16T23:47:19.532Z,71.16
2023-05-16T23:49:46.308Z,71.10
2023-05-16T23:52:13.629Z,71.25
2023-05-16T23:54:40.712Z,71.24
2023-05-16T23:57:07.446Z,71.14
2023-05-16T23:59:34.148Z,70.95
